sensor_id;sensor_type;location;lat;lon;timestamp;pressure;altitude;pressure_sealevel;temperature;humidity
64294;BME280;50636;45.596;5.258;2023-02-19T00:01:34;99858.19;;;9.55;66.14
64294;BME280;50636;45.596;5.258;2023-02-19T00:04:22;99855.56;;;9.63;65.86
64294;BME280;50636;45.596;5.258;2023-02-19T00:06:49;99852.94;;;9.63;65.10
64294;BME280;50636;45.596;5.258;2023-02-19T00:09:18;99855.41;;;9.65;66.14
64294;BME280;50636;45.596;5.258;2023-02-19T00:11:45;99852.44;;;9.76;65.03
64294;BME280;50636;45.596;5.258;2023-02-19T00:14:18;99848.81;;;9.85;63.71
64294;BME280;50636;45.596;5.258;2023-02-19T00:16:46;99852.75;;;9.89;63.43
64294;BME280;50636;45.596;5.258;2023-02-19T00:19:15;99861.25;;;9.99;63.49
64294;BME280;50636;45.596;5.258;2023-02-19T00:21:43;99854.84;;;10.02;63.13
64294;BME280;50636;45.596;5.258;2023-02-19T00:24:12;99853.06;;;10.03;62.42
64294;BME280;50636;45.596;5.258;2023-02-19T00:26:40;99847.91;;;10.17;63.36
64294;BME280;50636;45.596;5.258;2023-02-19T00:29:12;99851.44;;;10.49;62.57
64294;BME280;50636;45.596;5.258;2023-02-19T00:31:43;99843.16;;;10.69;61.77
64294;BME280;50636;45.596;5.258;2023-02-19T00:34:11;99843.09;;;10.77;61.36
64294;BME280;50636;45.596;5.258;2023-02-19T00:36:39;99848.47;;;10.52;61.19
64294;BME280;50636;45.596;5.258;2023-02-19T00:39:07;99840.50;;;10.37;61.84
64294;BME280;50636;45.596;5.258;2023-02-19T00:41:34;99846.56;;;10.38;61.26
64294;BME280;50636;45.596;5.258;2023-02-19T00:44:03;99842.63;;;10.34;62.12
64294;BME280;50636;45.596;5.258;2023-02-19T00:46:37;99847.88;;;10.34;62.13
64294;BME280;50636;45.596;5.258;2023-02-19T00:49:08;99846.75;;;10.36;62.00
64294;BME280;50636;45.596;5.258;2023-02-19T00:51:40;99843.25;;;10.52;61.05
64294;BME280;50636;45.596;5.258;2023-02-19T00:54:08;99838.16;;;10.51;60.55
64294;BME280;50636;45.596;5.258;2023-02-19T00:56:35;99838.69;;;10.38;60.76
64294;BME280;50636;45.596;5.258;2023-02-19T00:59:16;99827.53;;;10.28;61.36
64294;BME280;50636;45.596;5.258;2023-02-19T01:01:56;99828.38;;;10.20;61.65
64294;BME280;50636;45.596;5.258;2023-02-19T01:04:22;99832.22;;;10.01;61.90
64294;BME280;50636;45.596;5.258;2023-02-19T01:06:56;99830.28;;;9.95;62.20
64294;BME280;50636;45.596;5.258;2023-02-19T01:09:38;99832.56;;;9.90;63.26
64294;BME280;50636;45.596;5.258;2023-02-19T01:12:18;99831.25;;;9.94;64.50
64294;BME280;50636;45.596;5.258;2023-02-19T01:14:46;99831.56;;;10.07;63.68
64294;BME280;50636;45.596;5.258;2023-02-19T01:17:17;99829.13;;;9.97;64.93
64294;BME280;50636;45.596;5.258;2023-02-19T01:19:48;99830.59;;;10.00;64.48
64294;BME280;50636;45.596;5.258;2023-02-19T01:22:25;99829.75;;;9.99;64.99
64294;BME280;50636;45.596;5.258;2023-02-19T01:24:51;99820.53;;;10.12;64.54
64294;BME280;50636;45.596;5.258;2023-02-19T01:27:18;99831.38;;;10.17;64.09
64294;BME280;50636;45.596;5.258;2023-02-19T01:29:56;99816.81;;;10.06;63.82
64294;BME280;50636;45.596;5.258;2023-02-19T01:32:25;99825.53;;;9.90;64.95
64294;BME280;50636;45.596;5.258;2023-02-19T01:34:52;99823.72;;;9.91;65.22
64294;BME280;50636;45.596;5.258;2023-02-19T01:37:31;99820.47;;;9.89;64.79
64294;BME280;50636;45.596;5.258;2023-02-19T01:40:08;99820.16;;;9.75;65.56
64294;BME280;50636;45.596;5.258;2023-02-19T01:42:42;99818.03;;;9.79;65.03
64294;BME280;50636;45.596;5.258;2023-02-19T01:45:36;99812.34;;;9.51;65.74
64294;BME280;50636;45.596;5.258;2023-02-19T01:48:05;99815.28;;;9.48;65.64
64294;BME280;50636;45.596;5.258;2023-02-19T01:51:32;99812.03;;;9.46;66.18
64294;BME280;50636;45.596;5.258;2023-02-19T01:54:03;99814.28;;;9.65;65.87
64294;BME280;50636;45.596;5.258;2023-02-19T01:56:37;99820.00;;;9.69;65.99
64294;BME280;50636;45.596;5.258;2023-02-19T01:59:31;99819.97;;;9.85;65.79
64294;BME280;50636;45.596;5.258;2023-02-19T02:02:02;99818.66;;;9.81;65.96
64294;BME280;50636;45.596;5.258;2023-02-19T02:04:38;99805.53;;;9.89;65.96
64294;BME280;50636;45.596;5.258;2023-02-19T02:07:10;99810.94;;;9.88;65.29
64294;BME280;50636;45.596;5.258;2023-02-19T02:10:08;99804.13;;;9.62;65.65
64294;BME280;50636;45.596;5.258;2023-02-19T02:13:11;99803.50;;;9.52;66.80
64294;BME280;50636;45.596;5.258;2023-02-19T02:22:09;99797.56;;;9.74;67.11
64294;BME280;50636;45.596;5.258;2023-02-19T02:35:52;99782.41;;;10.01;66.55
64294;BME280;50636;45.596;5.258;2023-02-19T02:38:28;99783.72;;;9.97;66.83
64294;BME280;50636;45.596;5.258;2023-02-19T02:48:15;99769.16;;;10.34;64.71
64294;BME280;50636;45.596;5.258;2023-02-19T02:57:07;99768.97;;;9.96;65.34
64294;BME280;50636;45.596;5.258;2023-02-19T03:00:13;99774.53;;;10.01;65.90
64294;BME280;50636;45.596;5.258;2023-02-19T03:02:57;99762.34;;;10.16;66.05
64294;BME280;50636;45.596;5.258;2023-02-19T03:05:29;99765.25;;;10.22;65.43
64294;BME280;50636;45.596;5.258;2023-02-19T03:11:26;99754.81;;;10.13;65.82
64294;BME280;50636;45.596;5.258;2023-02-19T03:14:53;99761.09;;;10.04;65.89
64294;BME280;50636;45.596;5.258;2023-02-19T03:17:59;99750.63;;;9.88;66.00
64294;BME280;50636;45.596;5.258;2023-02-19T03:21:04;99751.44;;;9.96;66.67
64294;BME280;50636;45.596;5.258;2023-02-19T03:23:52;99749.84;;;10.27;66.49
64294;BME280;50636;45.596;5.258;2023-02-19T03:26:37;99749.50;;;10.30;65.67
64294;BME280;50636;45.596;5.258;2023-02-19T03:29:37;99751.00;;;10.24;65.33
64294;BME280;50636;45.596;5.258;2023-02-19T03:32:39;99751.28;;;10.37;65.39
64294;BME280;50636;45.596;5.258;2023-02-19T03:35:25;99753.25;;;10.67;64.60
64294;BME280;50636;45.596;5.258;2023-02-19T03:38:28;99756.56;;;10.84;64.13
64294;BME280;50636;45.596;5.258;2023-02-19T03:41:42;99750.44;;;10.91;63.17
64294;BME280;50636;45.596;5.258;2023-02-19T04:01:04;99746.81;;;10.69;63.85
64294;BME280;50636;45.596;5.258;2023-02-19T04:07:21;99752.66;;;10.79;62.93
64294;BME280;50636;45.596;5.258;2023-02-19T04:10:08;99756.22;;;10.87;62.98
64294;BME280;50636;45.596;5.258;2023-02-19T04:12:58;99748.56;;;11.00;62.33
64294;BME280;50636;45.596;5.258;2023-02-19T04:15:52;99743.38;;;10.92;62.32
64294;BME280;50636;45.596;5.258;2023-02-19T04:18:40;99756.44;;;11.00;62.01
64294;BME280;50636;45.596;5.258;2023-02-19T04:21:33;99756.81;;;10.97;62.00
64294;BME280;50636;45.596;5.258;2023-02-19T04:24:24;99763.03;;;10.96;61.68
64294;BME280;50636;45.596;5.258;2023-02-19T04:27:15;99764.47;;;10.98;61.47
64294;BME280;50636;45.596;5.258;2023-02-19T04:29:59;99775.81;;;10.99;61.76
64294;BME280;50636;45.596;5.258;2023-02-19T04:32:43;99773.31;;;11.06;61.54
64294;BME280;50636;45.596;5.258;2023-02-19T04:35:32;99781.75;;;11.16;61.63
64294;BME280;50636;45.596;5.258;2023-02-19T04:38:19;99781.50;;;11.11;60.83
64294;BME280;50636;45.596;5.258;2023-02-19T04:40:46;99789.41;;;11.03;61.58
64294;BME280;50636;45.596;5.258;2023-02-19T04:43:33;99793.28;;;11.15;62.08
64294;BME280;50636;45.596;5.258;2023-02-19T04:46:00;99783.97;;;11.27;61.06
64294;BME280;50636;45.596;5.258;2023-02-19T04:48:27;99792.84;;;11.26;60.90
64294;BME280;50636;45.596;5.258;2023-02-19T04:50:55;99787.75;;;11.25;61.01
64294;BME280;50636;45.596;5.258;2023-02-19T04:53:22;99790.03;;;11.28;60.99
64294;BME280;50636;45.596;5.258;2023-02-19T04:55:49;99793.31;;;11.30;61.12
64294;BME280;50636;45.596;5.258;2023-02-19T04:58:19;99789.31;;;11.34;60.86
64294;BME280;50636;45.596;5.258;2023-02-19T05:01:07;99789.34;;;11.49;61.25
64294;BME280;50636;45.596;5.258;2023-02-19T05:03:35;99792.56;;;11.59;60.46
64294;BME280;50636;45.596;5.258;2023-02-19T05:06:07;99805.78;;;11.66;60.19
64294;BME280;50636;45.596;5.258;2023-02-19T05:08:36;99805.25;;;11.70;59.83
64294;BME280;50636;45.596;5.258;2023-02-19T05:11:05;99804.06;;;11.73;59.56
64294;BME280;50636;45.596;5.258;2023-02-19T05:13:32;99798.63;;;11.74;59.67
64294;BME280;50636;45.596;5.258;2023-02-19T05:16:03;99802.63;;;11.70;59.58
64294;BME280;50636;45.596;5.258;2023-02-19T05:18:53;99805.34;;;11.62;59.82
64294;BME280;50636;45.596;5.258;2023-02-19T05:21:34;99804.88;;;11.58;59.88
64294;BME280;50636;45.596;5.258;2023-02-19T05:24:09;99812.66;;;11.52;59.89
64294;BME280;50636;45.596;5.258;2023-02-19T05:26:42;99807.19;;;11.38;60.04
64294;BME280;50636;45.596;5.258;2023-02-19T05:29:10;99807.91;;;11.32;59.75
64294;BME280;50636;45.596;5.258;2023-02-19T05:31:37;99802.16;;;11.29;60.52
64294;BME280;50636;45.596;5.258;2023-02-19T05:34:04;99810.00;;;11.37;60.24
64294;BME280;50636;45.596;5.258;2023-02-19T05:36:32;99808.38;;;11.51;60.52
64294;BME280;50636;45.596;5.258;2023-02-19T05:38:59;99800.06;;;11.62;60.18
64294;BME280;50636;45.596;5.258;2023-02-19T05:41:28;99801.44;;;11.58;59.69
64294;BME280;50636;45.596;5.258;2023-02-19T05:43:56;99800.88;;;11.48;59.85
64294;BME280;50636;45.596;5.258;2023-02-19T05:46:26;99789.88;;;11.44;59.27
64294;BME280;50636;45.596;5.258;2023-02-19T05:48:53;99784.88;;;11.34;59.48
64294;BME280;50636;45.596;5.258;2023-02-19T05:51:22;99789.94;;;11.21;59.66
64294;BME280;50636;45.596;5.258;2023-02-19T05:54:08;99791.06;;;11.04;59.99
64294;BME280;50636;45.596;5.258;2023-02-19T05:56:35;99788.00;;;10.92;60.31
64294;BME280;50636;45.596;5.258;2023-02-19T05:59:15;99778.31;;;10.92;61.54
64294;BME280;50636;45.596;5.258;2023-02-19T06:02:15;99772.44;;;11.13;61.41
64294;BME280;50636;45.596;5.258;2023-02-19T06:04:58;99769.34;;;11.25;60.69
64294;BME280;50636;45.596;5.258;2023-02-19T06:07:38;99765.66;;;11.34;61.33
64294;BME280;50636;45.596;5.258;2023-02-19T06:10:10;99761.34;;;11.41;60.34
64294;BME280;50636;45.596;5.258;2023-02-19T06:13:04;99747.19;;;11.27;60.11
64294;BME280;50636;45.596;5.258;2023-02-19T06:15:38;99751.66;;;11.04;62.06
64294;BME280;50636;45.596;5.258;2023-02-19T06:18:13;99749.78;;;10.89;62.88
64294;BME280;50636;45.596;5.258;2023-02-19T06:20:51;99745.06;;;10.62;64.35
64294;BME280;50636;45.596;5.258;2023-02-19T06:23:29;99748.00;;;10.67;65.82
64294;BME280;50636;45.596;5.258;2023-02-19T06:29:16;99721.63;;;11.51;63.02
64294;BME280;50636;45.596;5.258;2023-02-19T06:31:46;99707.94;;;11.70;61.60
64294;BME280;50636;45.596;5.258;2023-02-19T06:34:20;99695.97;;;11.53;62.86
64294;BME280;50636;45.596;5.258;2023-02-19T06:36:52;99691.19;;;11.56;63.05
64294;BME280;50636;45.596;5.258;2023-02-19T06:39:29;99724.53;;;11.56;62.10
64294;BME280;50636;45.596;5.258;2023-02-19T06:42:02;99733.59;;;11.38;63.59
64294;BME280;50636;45.596;5.258;2023-02-19T06:44:40;99732.25;;;11.57;63.45
64294;BME280;50636;45.596;5.258;2023-02-19T06:47:11;99741.38;;;11.47;62.81
64294;BME280;50636;45.596;5.258;2023-02-19T06:49:46;99747.50;;;11.47;63.42
64294;BME280;50636;45.596;5.258;2023-02-19T06:52:21;99756.81;;;11.65;63.27
64294;BME280;50636;45.596;5.258;2023-02-19T06:54:49;99756.41;;;11.91;63.13
64294;BME280;50636;45.596;5.258;2023-02-19T06:57:22;99756.31;;;12.14;61.09
64294;BME280;50636;45.596;5.258;2023-02-19T06:59:53;99760.88;;;12.27;60.76
64294;BME280;50636;45.596;5.258;2023-02-19T07:02:33;99766.09;;;12.99;59.56
64294;BME280;50636;45.596;5.258;2023-02-19T07:04:59;99772.84;;;13.87;56.59
64294;BME280;50636;45.596;5.258;2023-02-19T07:07:31;99782.09;;;14.59;55.05
64294;BME280;50636;45.596;5.258;2023-02-19T07:10:00;99778.09;;;15.43;53.14
64294;BME280;50636;45.596;5.258;2023-02-19T07:12:26;99785.59;;;15.66;50.93
64294;BME280;50636;45.596;5.258;2023-02-19T07:14:53;99797.44;;;15.04;51.71
64294;BME280;50636;45.596;5.258;2023-02-19T07:17:21;99813.53;;;14.47;52.44
64294;BME280;50636;45.596;5.258;2023-02-19T07:19:47;99813.25;;;13.94;53.53
64294;BME280;50636;45.596;5.258;2023-02-19T07:22:13;99818.72;;;13.57;54.20
64294;BME280;50636;45.596;5.258;2023-02-19T07:24:50;99821.34;;;13.29;54.88
64294;BME280;50636;45.596;5.258;2023-02-19T07:27:21;99830.47;;;13.12;54.99
64294;BME280;50636;45.596;5.258;2023-02-19T07:29:47;99833.03;;;12.84;55.61
64294;BME280;50636;45.596;5.258;2023-02-19T07:32:16;99842.41;;;12.71;56.27
64294;BME280;50636;45.596;5.258;2023-02-19T07:34:52;99848.63;;;12.64;56.18
64294;BME280;50636;45.596;5.258;2023-02-19T07:37:18;99852.72;;;12.66;56.66
64294;BME280;50636;45.596;5.258;2023-02-19T07:39:45;99854.53;;;12.66;56.53
64294;BME280;50636;45.596;5.258;2023-02-19T07:42:12;99848.06;;;12.53;56.75
64294;BME280;50636;45.596;5.258;2023-02-19T07:44:39;99859.97;;;12.49;57.09
64294;BME280;50636;45.596;5.258;2023-02-19T07:47:05;99862.25;;;12.52;57.54
64294;BME280;50636;45.596;5.258;2023-02-19T07:49:32;99859.25;;;12.55;57.40
64294;BME280;50636;45.596;5.258;2023-02-19T07:52:00;99858.25;;;12.56;57.23
64294;BME280;50636;45.596;5.258;2023-02-19T07:54:28;99860.88;;;12.56;57.51
64294;BME280;50636;45.596;5.258;2023-02-19T07:56:55;99868.84;;;12.63;57.66
64294;BME280;50636;45.596;5.258;2023-02-19T07:59:23;99868.13;;;12.69;57.12
64294;BME280;50636;45.596;5.258;2023-02-19T08:01:50;99859.16;;;12.64;57.59
64294;BME280;50636;45.596;5.258;2023-02-19T08:04:35;99859.16;;;12.49;57.75
64294;BME280;50636;45.596;5.258;2023-02-19T08:07:03;99872.16;;;12.50;57.80
64294;BME280;50636;45.596;5.258;2023-02-19T08:09:31;99864.09;;;12.52;58.24
64294;BME280;50636;45.596;5.258;2023-02-19T08:12:10;99868.97;;;12.55;58.21
64294;BME280;50636;45.596;5.258;2023-02-19T08:15:06;99870.34;;;12.66;57.78
64294;BME280;50636;45.596;5.258;2023-02-19T08:17:39;99877.56;;;12.78;57.48
64294;BME280;50636;45.596;5.258;2023-02-19T08:20:24;99871.63;;;12.91;57.57
64294;BME280;50636;45.596;5.258;2023-02-19T08:23:08;99879.59;;;13.19;57.93
64294;BME280;50636;45.596;5.258;2023-02-19T08:25:51;99888.38;;;13.42;56.99
64294;BME280;50636;45.596;5.258;2023-02-19T08:28:35;99885.53;;;13.43;56.34
64294;BME280;50636;45.596;5.258;2023-02-19T08:31:21;99887.91;;;13.38;56.42
64294;BME280;50636;45.596;5.258;2023-02-19T08:33:55;99900.94;;;13.39;56.71
64294;BME280;50636;45.596;5.258;2023-02-19T08:36:27;99904.19;;;13.42;56.27
64294;BME280;50636;45.596;5.258;2023-02-19T08:38:54;99901.94;;;13.38;56.54
64294;BME280;50636;45.596;5.258;2023-02-19T08:41:21;99906.16;;;13.54;56.61
64294;BME280;50636;45.596;5.258;2023-02-19T08:43:48;99919.88;;;13.71;56.18
64294;BME280;50636;45.596;5.258;2023-02-19T08:46:15;99915.53;;;13.85;55.96
64294;BME280;50636;45.596;5.258;2023-02-19T08:48:42;99914.09;;;13.83;55.47
64294;BME280;50636;45.596;5.258;2023-02-19T08:51:10;99920.28;;;13.68;55.90
64294;BME280;50636;45.596;5.258;2023-02-19T08:53:39;99930.19;;;13.66;55.69
64294;BME280;50636;45.596;5.258;2023-02-19T08:56:21;99920.63;;;13.65;55.76
64294;BME280;50636;45.596;5.258;2023-02-19T08:58:49;99918.81;;;13.66;55.48
64294;BME280;50636;45.596;5.258;2023-02-19T09:01:21;99919.84;;;13.65;55.40
64294;BME280;50636;45.596;5.258;2023-02-19T09:03:48;99909.47;;;13.63;55.75
64294;BME280;50636;45.596;5.258;2023-02-19T09:06:30;99913.06;;;13.84;55.31
64294;BME280;50636;45.596;5.258;2023-02-19T09:09:14;99918.22;;;13.92;55.15
64294;BME280;50636;45.596;5.258;2023-02-19T09:11:46;99918.47;;;13.97;55.08
64294;BME280;50636;45.596;5.258;2023-02-19T09:14:13;99916.88;;;14.03;55.16
64294;BME280;50636;45.596;5.258;2023-02-19T09:16:56;99920.19;;;14.11;55.09
64294;BME280;50636;45.596;5.258;2023-02-19T09:19:23;99917.50;;;14.33;54.76
64294;BME280;50636;45.596;5.258;2023-02-19T09:22:11;99917.50;;;14.74;54.35
64294;BME280;50636;45.596;5.258;2023-02-19T09:24:37;99920.09;;;15.23;53.53
64294;BME280;50636;45.596;5.258;2023-02-19T09:27:33;99912.28;;;15.76;52.13
64294;BME280;50636;45.596;5.258;2023-02-19T09:29:59;99919.56;;;16.01;51.52
64294;BME280;50636;45.596;5.258;2023-02-19T09:32:36;99912.63;;;16.26;50.97
64294;BME280;50636;45.596;5.258;2023-02-19T09:35:03;99921.31;;;16.60;50.18
64294;BME280;50636;45.596;5.258;2023-02-19T09:37:30;99917.63;;;17.06;50.04
64294;BME280;50636;45.596;5.258;2023-02-19T09:39:57;99904.97;;;17.72;48.47
64294;BME280;50636;45.596;5.258;2023-02-19T09:42:27;99899.03;;;18.20;47.24
64294;BME280;50636;45.596;5.258;2023-02-19T09:45:00;99900.34;;;18.85;45.74
64294;BME280;50636;45.596;5.258;2023-02-19T09:47:29;99890.16;;;19.66;43.81
64294;BME280;50636;45.596;5.258;2023-02-19T09:50:01;99893.63;;;20.37;43.19
64294;BME280;50636;45.596;5.258;2023-02-19T09:52:54;99886.50;;;21.41;41.42
64294;BME280;50636;45.596;5.258;2023-02-19T09:55:35;99877.16;;;22.11;39.20
64294;BME280;50636;45.596;5.258;2023-02-19T09:58:34;99878.16;;;22.44;38.62
64294;BME280;50636;45.596;5.258;2023-02-19T10:01:03;99885.06;;;22.62;38.19
64294;BME280;50636;45.596;5.258;2023-02-19T10:03:36;99885.31;;;22.38;38.05
64294;BME280;50636;45.596;5.258;2023-02-19T10:06:11;99885.25;;;22.16;37.93
64294;BME280;50636;45.596;5.258;2023-02-19T10:08:42;99886.31;;;21.76;37.59
64294;BME280;50636;45.596;5.258;2023-02-19T10:11:17;99883.59;;;21.25;39.11
64294;BME280;50636;45.596;5.258;2023-02-19T10:16:21;99883.81;;;21.69;39.01
64294;BME280;50636;45.596;5.258;2023-02-19T10:18:53;99884.09;;;21.90;38.36
64294;BME280;50636;45.596;5.258;2023-02-19T10:21:23;99883.28;;;21.89;37.58
64294;BME280;50636;45.596;5.258;2023-02-19T10:24:01;99878.63;;;21.46;38.31
64294;BME280;50636;45.596;5.258;2023-02-19T10:26:33;99875.13;;;21.00;39.04
64294;BME280;50636;45.596;5.258;2023-02-19T10:29:05;99874.44;;;21.21;38.50
64294;BME280;50636;45.596;5.258;2023-02-19T10:32:14;99881.56;;;21.32;38.17
64294;BME280;50636;45.596;5.258;2023-02-19T10:34:39;99875.16;;;21.45;38.54
64294;BME280;50636;45.596;5.258;2023-02-19T10:37:15;99880.00;;;21.65;38.51
64294;BME280;50636;45.596;5.258;2023-02-19T10:39:46;99879.09;;;21.77;37.47
64294;BME280;50636;45.596;5.258;2023-02-19T10:43:03;99872.59;;;21.89;37.26
64294;BME280;50636;45.596;5.258;2023-02-19T10:45:50;99874.16;;;21.85;37.30
64294;BME280;50636;45.596;5.258;2023-02-19T10:48:44;99880.78;;;21.83;37.16
64294;BME280;50636;45.596;5.258;2023-02-19T10:51:11;99870.69;;;21.68;37.17
64294;BME280;50636;45.596;5.258;2023-02-19T10:53:50;99874.06;;;21.29;37.72
64294;BME280;50636;45.596;5.258;2023-02-19T10:56:26;99889.06;;;20.73;38.45
64294;BME280;50636;45.596;5.258;2023-02-19T10:59:27;99891.13;;;20.19;39.15
64294;BME280;50636;45.596;5.258;2023-02-19T11:02:14;99900.75;;;19.72;39.89
64294;BME280;50636;45.596;5.258;2023-02-19T11:05:15;99898.41;;;19.22;41.49
64294;BME280;50636;45.596;5.258;2023-02-19T11:07:54;99906.47;;;19.15;42.16
64294;BME280;50636;45.596;5.258;2023-02-19T11:10:33;99906.72;;;19.14;42.27
64294;BME280;50636;45.596;5.258;2023-02-19T11:13:29;99912.84;;;19.14;42.32
64294;BME280;50636;45.596;5.258;2023-02-19T11:16:08;99907.38;;;19.09;42.44
64294;BME280;50636;45.596;5.258;2023-02-19T11:18:34;99911.69;;;19.10;42.91
64294;BME280;50636;45.596;5.258;2023-02-19T11:21:36;99903.91;;;19.09;42.53
64294;BME280;50636;45.596;5.258;2023-02-19T11:24:22;99905.19;;;19.06;42.35
64294;BME280;50636;45.596;5.258;2023-02-19T11:27:27;99899.97;;;19.00;43.27
64294;BME280;50636;45.596;5.258;2023-02-19T11:33:26;99898.75;;;19.14;43.26
64294;BME280;50636;45.596;5.258;2023-02-19T11:42:03;99898.09;;;18.51;43.54
64294;BME280;50636;45.596;5.258;2023-02-19T11:57:59;99881.97;;;17.91;44.79
64294;BME280;50636;45.596;5.258;2023-02-19T12:01:45;99876.97;;;18.01;44.83
64294;BME280;50636;45.596;5.258;2023-02-19T12:10:42;99860.34;;;18.06;44.36
64294;BME280;50636;45.596;5.258;2023-02-19T12:13:55;99854.81;;;18.26;44.12
64294;BME280;50636;45.596;5.258;2023-02-19T12:29:16;99844.75;;;18.95;43.14
64294;BME280;50636;45.596;5.258;2023-02-19T12:35:19;99832.59;;;18.87;42.83
64294;BME280;50636;45.596;5.258;2023-02-19T12:44:16;99827.56;;;18.30;44.51
64294;BME280;50636;45.596;5.258;2023-02-19T12:47:35;99827.97;;;18.15;44.93
64294;BME280;50636;45.596;5.258;2023-02-19T12:50:34;99830.06;;;18.07;45.14
64294;BME280;50636;45.596;5.258;2023-02-19T12:57:27;99835.34;;;17.95;46.04
64294;BME280;50636;45.596;5.258;2023-02-19T12:59:35;99825.59;;;17.89;46.26
64294;BME280;50636;45.596;5.258;2023-02-19T13:02:26;99828.09;;;17.84;46.57
64294;BME280;50636;45.596;5.258;2023-02-19T13:13:38;99823.03;;;17.75;47.23
64294;BME280;50636;45.596;5.258;2023-02-19T13:16:17;99817.66;;;17.82;47.36
64294;BME280;50636;45.596;5.258;2023-02-19T13:19:04;99815.50;;;17.72;46.77
64294;BME280;50636;45.596;5.258;2023-02-19T13:21:33;99810.59;;;17.51;46.76
64294;BME280;50636;45.596;5.258;2023-02-19T13:24:29;99805.94;;;17.46;47.80
64294;BME280;50636;45.596;5.258;2023-02-19T13:27:40;99805.06;;;17.27;47.94
64294;BME280;50636;45.596;5.258;2023-02-19T13:36:58;99807.22;;;17.62;47.62
64294;BME280;50636;45.596;5.258;2023-02-19T13:39:26;99806.19;;;17.63;47.02
64294;BME280;50636;45.596;5.258;2023-02-19T13:42:03;99818.88;;;17.61;47.77
64294;BME280;50636;45.596;5.258;2023-02-19T13:44:40;99809.94;;;17.55;46.95
64294;BME280;50636;45.596;5.258;2023-02-19T13:50:33;99815.50;;;17.22;48.05
64294;BME280;50636;45.596;5.258;2023-02-19T13:53:01;99814.75;;;17.15;48.37
64294;BME280;50636;45.596;5.258;2023-02-19T13:56:34;99811.34;;;17.08;48.11
64294;BME280;50636;45.596;5.258;2023-02-19T14:14:37;99806.00;;;16.83;49.00
64294;BME280;50636;45.596;5.258;2023-02-19T14:28:33;99782.84;;;16.65;49.53
64294;BME280;50636;45.596;5.258;2023-02-19T14:31:35;99780.94;;;16.72;49.71
64294;BME280;50636;45.596;5.258;2023-02-19T14:34:19;99780.50;;;16.82;49.38
64294;BME280;50636;45.596;5.258;2023-02-19T14:36:57;99781.72;;;16.79;49.00
64294;BME280;50636;45.596;5.258;2023-02-19T14:39:32;99779.44;;;16.89;48.87
64294;BME280;50636;45.596;5.258;2023-02-19T14:42:22;99776.06;;;17.07;48.09
64294;BME280;50636;45.596;5.258;2023-02-19T14:45:20;99770.09;;;17.12;47.61
64294;BME280;50636;45.596;5.258;2023-02-19T14:47:57;99766.91;;;17.03;48.01
64294;BME280;50636;45.596;5.258;2023-02-19T14:50:30;99777.13;;;17.00;48.23
64294;BME280;50636;45.596;5.258;2023-02-19T14:53:15;99784.41;;;17.11;48.17
64294;BME280;50636;45.596;5.258;2023-02-19T14:55:45;99779.03;;;17.17;48.26
64294;BME280;50636;45.596;5.258;2023-02-19T14:58:30;99788.97;;;17.22;48.01
64294;BME280;50636;45.596;5.258;2023-02-19T15:01:27;99784.50;;;17.23;48.21
64294;BME280;50636;45.596;5.258;2023-02-19T15:03:54;99789.25;;;17.14;48.01
64294;BME280;50636;45.596;5.258;2023-02-19T15:06:21;99782.16;;;17.08;48.89
64294;BME280;50636;45.596;5.258;2023-02-19T15:08:52;99785.78;;;17.13;48.54
64294;BME280;50636;45.596;5.258;2023-02-19T15:11:25;99785.31;;;17.23;48.64
64294;BME280;50636;45.596;5.258;2023-02-19T15:14:04;99789.47;;;17.37;47.89
64294;BME280;50636;45.596;5.258;2023-02-19T15:16:34;99774.91;;;17.47;47.38
64294;BME280;50636;45.596;5.258;2023-02-19T15:19:05;99781.81;;;17.48;47.22
64294;BME280;50636;45.596;5.258;2023-02-19T15:21:35;99788.72;;;17.55;47.22
64294;BME280;50636;45.596;5.258;2023-02-19T15:24:05;99780.53;;;17.57;47.49
64294;BME280;50636;45.596;5.258;2023-02-19T15:26:38;99786.81;;;17.63;47.18
64294;BME280;50636;45.596;5.258;2023-02-19T15:29:16;99782.59;;;17.55;46.85
64294;BME280;50636;45.596;5.258;2023-02-19T15:31:52;99783.78;;;17.34;46.44
64294;BME280;50636;45.596;5.258;2023-02-19T15:34:29;99778.22;;;17.17;47.23
64294;BME280;50636;45.596;5.258;2023-02-19T15:37:21;99774.78;;;17.10;47.82
64294;BME280;50636;45.596;5.258;2023-02-19T15:40:05;99792.28;;;17.17;47.55
64294;BME280;50636;45.596;5.258;2023-02-19T15:43:00;99781.34;;;17.07;46.99
64294;BME280;50636;45.596;5.258;2023-02-19T15:45:57;99789.47;;;16.81;47.15
64294;BME280;50636;45.596;5.258;2023-02-19T15:48:44;99789.34;;;16.69;47.86
64294;BME280;50636;45.596;5.258;2023-02-19T15:51:38;99790.75;;;16.71;47.94
64294;BME280;50636;45.596;5.258;2023-02-19T15:54:35;99785.63;;;16.70;47.49
64294;BME280;50636;45.596;5.258;2023-02-19T15:57:25;99797.09;;;16.64;47.41
64294;BME280;50636;45.596;5.258;2023-02-19T16:00:16;99796.72;;;16.60;47.52
64294;BME280;50636;45.596;5.258;2023-02-19T16:03:00;99802.63;;;16.62;47.15
64294;BME280;50636;45.596;5.258;2023-02-19T16:05:36;99783.28;;;16.55;47.46
64294;BME280;50636;45.596;5.258;2023-02-19T16:08:27;99784.13;;;16.49;47.35
64294;BME280;50636;45.596;5.258;2023-02-19T16:11:33;99780.34;;;16.31;47.06
64294;BME280;50636;45.596;5.258;2023-02-19T16:14:34;99775.91;;;16.18;47.35
64294;BME280;50636;45.596;5.258;2023-02-19T16:17:20;99767.00;;;16.06;47.52
64294;BME280;50636;45.596;5.258;2023-02-19T16:20:26;99782.47;;;16.16;47.76
64294;BME280;50636;45.596;5.258;2023-02-19T16:23:21;99772.28;;;16.13;47.85
64294;BME280;50636;45.596;5.258;2023-02-19T16:26:10;99765.38;;;16.05;48.45
64294;BME280;50636;45.596;5.258;2023-02-19T16:28:53;99774.75;;;16.01;48.33
64294;BME280;50636;45.596;5.258;2023-02-19T16:31:27;99783.13;;;15.98;48.81
64294;BME280;50636;45.596;5.258;2023-02-19T16:37:34;99789.59;;;16.09;48.92
64294;BME280;50636;45.596;5.258;2023-02-19T16:45:34;99791.53;;;15.62;48.99
64294;BME280;50636;45.596;5.258;2023-02-19T16:48:20;99799.44;;;15.55;48.77
64294;BME280;50636;45.596;5.258;2023-02-19T16:50:47;99793.16;;;15.43;48.96
64294;BME280;50636;45.596;5.258;2023-02-19T16:53:21;99803.94;;;15.34;48.62